createdAt,value
2023-05-22T00:00:09.884Z,11.80
2023-05-22T00:02:43.182Z,10.82
2023-05-22T00:05:18.506Z,11.45
2023-05-22T00:07:48.406Z,10.57
2023-05-22T00:10:17.835Z,10.82
2023-05-22T00:12:49.603Z,10.95
2023-05-22T00:15:17.083Z,12.05
2023-05-22T00:17:44.537Z,11.23
2023-05-22T00:20:12.159Z,12.18
2023-05-22T00:22:39.400Z,11.65
2023-05-22T00:25:10.287Z,11.85
2023-05-22T00:27:39.947Z,11.18
2023-05-22T00:30:07.990Z,12.30
2023-05-22T00:32:37.773Z,12.75
2023-05-22T00:35:05.510Z,11.88
2023-05-22T00:37:35.183Z,11.68
2023-05-22T00:40:05.987Z,11.80
2023-05-22T00:42:33.428Z,11.98
2023-05-22T00:45:02.794Z,12.27
2023-05-22T00:47:30.021Z,11.13
2023-05-22T00:49:59.951Z,13.15
2023-05-22T00:52:30.418Z,12.70
2023-05-22T00:54:57.904Z,12.20
2023-05-22T00:57:30.058Z,12.70
2023-05-22T00:59:57.438Z,13.00
2023-05-22T01:02:28.299Z,12.90
2023-05-22T01:05:06.014Z,13.98
2023-05-22T01:07:41.138Z,14.05
2023-05-22T01:10:11.838Z,15.07
2023-05-22T01:13:06.094Z,15.52
2023-05-22T01:15:46.761Z,16.52
2023-05-22T01:18:31.959Z,15.82
2023-05-22T01:21:16.485Z,18.38
2023-05-22T01:24:16.814Z,17.40
2023-05-22T01:27:08.657Z,17.08
2023-05-22T01:29:47.916Z,19.08
2023-05-22T01:32:20.436Z,18.08
2023-05-22T01:34:52.694Z,19.40
2023-05-22T01:37:24.567Z,17.92
2023-05-22T01:39:52.452Z,20.38
2023-05-22T01:42:23.041Z,21.08
2023-05-22T01:44:52.621Z,20.88
2023-05-22T01:47:19.989Z,22.30
2023-05-22T01:49:52.629Z,21.63
2023-05-22T01:52:54.172Z,21.98
2023-05-22T01:55:35.462Z,24.02
2023-05-22T01:58:28.106Z,21.45
2023-05-22T02:01:00.958Z,23.38
2023-05-22T02:03:31.880Z,24.73
2023-05-22T02:06:01.750Z,23.77
2023-05-22T02:08:31.904Z,24.83
2023-05-22T02:11:03.067Z,22.73
2023-05-22T02:13:33.547Z,24.83
2023-05-22T02:16:04.054Z,25.33
2023-05-22T02:18:33.752Z,25.83
2023-05-22T02:21:03.411Z,25.25
2023-05-22T02:23:30.831Z,24.08
2023-05-22T02:26:00.369Z,22.73
2023-05-22T02:28:27.785Z,23.88
2023-05-22T02:31:03.531Z,24.98
2023-05-22T02:33:33.291Z,25.35
2023-05-22T02:36:03.082Z,26.30
2023-05-22T02:38:35.818Z,24.33
2023-05-22T02:41:03.172Z,27.13
2023-05-22T02:43:35.026Z,28.40
2023-05-22T02:46:02.294Z,26.73
2023-05-22T02:48:29.529Z,26.90
2023-05-22T02:50:58.908Z,27.80
2023-05-22T02:53:28.576Z,26.77
2023-05-22T02:55:59.068Z,29.13
2023-05-22T02:58:26.322Z,27.00
2023-05-22T03:00:56.132Z,28.92
2023-05-22T03:03:26.263Z,29.35
2023-05-22T03:05:58.500Z,28.50
2023-05-22T03:08:28.431Z,28.80
2023-05-22T03:10:59.846Z,30.85
2023-05-22T03:13:27.108Z,29.05
2023-05-22T03:15:56.764Z,28.67
2023-05-22T03:18:26.698Z,29.13
2023-05-22T03:20:56.915Z,27.85
2023-05-22T03:23:25.289Z,29.23
2023-05-22T03:25:55.280Z,28.40
2023-05-22T03:28:24.742Z,28.67
2023-05-22T03:30:52.570Z,30.35
2023-05-22T03:33:21.923Z,31.10
2023-05-22T03:35:51.477Z,30.08
2023-05-22T03:38:18.694Z,30.33
2023-05-22T03:40:48.494Z,29.70
2023-05-22T03:43:20.573Z,30.83
2023-05-22T03:45:47.796Z,31.42
2023-05-22T03:48:17.632Z,31.13
2023-05-22T03:50:49.585Z,29.08
2023-05-22T03:53:17.252Z,28.23
2023-05-22T03:55:46.971Z,29.48
2023-05-22T03:58:16.362Z,30.40
2023-05-22T04:00:43.776Z,30.45
2023-05-22T04:03:13.234Z,29.45
2023-05-22T04:05:40.564Z,29.70
2023-05-22T04:08:10.255Z,28.73
2023-05-22T04:10:40.323Z,29.83
2023-05-22T04:13:09.925Z,30.33
2023-05-22T04:15:43.645Z,30.95
2023-05-22T04:18:13.340Z,31.23
2023-05-22T04:20:40.739Z,29.65
2023-05-22T04:23:08.376Z,30.67
2023-05-22T04:25:39.905Z,28.40
2023-05-22T04:28:08.087Z,30.60
2023-05-22T04:30:38.028Z,29.30
2023-05-22T04:33:05.763Z,26.95
2023-05-22T04:35:36.027Z,27.73
2023-05-22T04:38:03.659Z,26.92
2023-05-22T04:40:34.381Z,25.83
2023-05-22T04:43:03.909Z,25.50
2023-05-22T04:45:31.126Z,25.42
2023-05-22T04:48:02.634Z,28.30
2023-05-22T04:50:32.992Z,27.75
2023-05-22T04:53:05.902Z,28.58
2023-05-22T04:55:34.163Z,28.08
2023-05-22T04:58:08.397Z,29.00
2023-05-22T05:00:35.901Z,31.83
2023-05-22T05:03:03.950Z,28.55
2023-05-22T05:05:31.316Z,29.45
2023-05-22T05:08:00.766Z,29.52
2023-05-22T05:10:27.992Z,28.92
2023-05-22T05:12:58.184Z,27.95
2023-05-22T05:15:29.800Z,29.05
2023-05-22T05:17:59.503Z,28.70
2023-05-22T05:20:27.521Z,28.70
2023-05-22T05:22:54.732Z,26.92
2023-05-22T05:25:27.066Z,27.23
2023-05-22T05:27:54.248Z,27.42
2023-05-22T05:30:23.762Z,27.35
2023-05-22T05:32:53.407Z,25.55
2023-05-22T05:35:25.174Z,24.23
2023-05-22T05:37:55.688Z,25.25
2023-05-22T05:40:27.280Z,25.50
2023-05-22T05:42:54.479Z,25.67
2023-05-22T05:45:24.242Z,24.08
2023-05-22T05:47:53.632Z,26.50
2023-05-22T05:50:23.045Z,25.45
2023-05-22T05:52:55.153Z,24.10
2023-05-22T05:55:24.778Z,26.15
2023-05-22T05:57:52.364Z,27.02
2023-05-22T06:00:24.377Z,25.33
2023-05-22T06:02:54.481Z,28.95
2023-05-22T06:05:23.144Z,28.13
2023-05-22T06:07:50.573Z,27.20
2023-05-22T06:10:17.866Z,27.70
2023-05-22T06:12:45.104Z,29.85
2023-05-22T06:15:14.746Z,27.75
2023-05-22T06:17:46.607Z,28.13
2023-05-22T06:20:16.076Z,30.40
2023-05-22T06:22:45.614Z,28.92
2023-05-22T06:25:12.797Z,28.30
2023-05-22T06:27:39.942Z,31.23
2023-05-22T06:30:09.901Z,32.30
2023-05-22T06:32:39.585Z,28.92
2023-05-22T06:35:10.547Z,30.42
2023-05-22T06:37:38.938Z,29.80
2023-05-22T06:40:10.148Z,29.88
2023-05-22T06:42:37.298Z,29.98
2023-05-22T06:45:07.348Z,31.15
2023-05-22T06:47:36.990Z,31.48
2023-05-22T06:50:04.456Z,31.33
2023-05-22T06:52:36.769Z,30.88
2023-05-22T06:55:08.845Z,31.90
2023-05-22T06:57:36.045Z,30.13
2023-05-22T07:00:07.730Z,30.67
2023-05-22T07:02:37.243Z,29.63
2023-05-22T07:05:04.946Z,29.92
2023-05-22T07:07:34.809Z,29.15
2023-05-22T07:10:09.265Z,30.52
2023-05-22T07:12:37.066Z,28.75
2023-05-22T07:15:04.539Z,28.55
2023-05-22T07:17:34.864Z,30.42
2023-05-22T07:20:02.139Z,30.75
2023-05-22T07:22:34.007Z,31.45
2023-05-22T07:25:03.503Z,32.15
2023-05-22T07:27:32.991Z,30.13
2023-05-22T07:30:02.317Z,30.20
2023-05-22T07:32:32.160Z,30.38
2023-05-22T07:35:01.559Z,32.65
2023-05-22T07:37:31.754Z,32.38
2023-05-22T07:39:59.000Z,32.35
2023-05-22T07:42:29.321Z,32.83
2023-05-22T07:44:59.018Z,30.75
2023-05-22T07:47:28.794Z,34.05
2023-05-22T07:50:04.309Z,32.47
2023-05-22T07:52:36.185Z,32.13
2023-05-22T07:55:03.577Z,34.15
2023-05-22T07:57:30.841Z,34.78
2023-05-22T08:00:06.776Z,35.15
2023-05-22T08:02:34.213Z,37.95
2023-05-22T08:05:04.683Z,36.53
2023-05-22T08:07:33.014Z,39.05
2023-05-22T08:10:13.862Z,36.30
2023-05-22T08:12:41.219Z,34.00
2023-05-22T08:15:09.004Z,33.65
2023-05-22T08:17:38.897Z,34.47
2023-05-22T08:20:11.812Z,36.05
2023-05-22T08:22:40.718Z,33.95
2023-05-22T08:25:11.001Z,35.60
2023-05-22T08:27:40.455Z,35.00
2023-05-22T08:30:08.263Z,34.97
2023-05-22T08:32:37.791Z,38.15
2023-05-22T08:35:10.109Z,41.60
2023-05-22T08:37:40.117Z,40.47
2023-05-22T08:40:12.772Z,39.75
2023-05-22T08:42:44.821Z,38.90
2023-05-22T08:45:12.248Z,42.35
2023-05-22T08:47:44.872Z,39.35
2023-05-22T08:50:16.797Z,43.03
2023-05-22T08:52:50.747Z,46.30
2023-05-22T08:55:21.630Z,45.78
2023-05-22T08:57:55.236Z,46.78
2023-05-22T09:00:25.040Z,47.60
2023-05-22T09:02:56.005Z,50.28
2023-05-22T09:05:26.985Z,48.97
2023-05-22T09:08:16.135Z,48.78
2023-05-22T09:10:49.857Z,49.25
2023-05-22T09:13:27.771Z,50.70
2023-05-22T09:16:17.480Z,48.10
2023-05-22T09:18:45.613Z,45.03
2023-05-22T09:21:29.024Z,39.72
2023-05-22T09:24:01.840Z,33.80
2023-05-22T09:26:33.767Z,31.95
2023-05-22T09:29:01.359Z,32.70
2023-05-22T09:31:31.784Z,29.45
2023-05-22T09:34:10.309Z,27.60
2023-05-22T09:36:42.469Z,30.23
2023-05-22T09:39:11.889Z,31.30
2023-05-22T09:41:44.283Z,27.58
2023-05-22T09:44:16.162Z,29.42
2023-05-22T09:46:49.653Z,28.50
2023-05-22T09:49:17.575Z,32.38
2023-05-22T09:51:49.264Z,31.90
2023-05-22T09:54:18.665Z,32.95
2023-05-22T09:56:51.808Z,31.67
2023-05-22T09:59:29.385Z,33.00
2023-05-22T10:02:05.268Z,35.15
2023-05-22T10:04:38.431Z,31.73
2023-05-22T10:07:12.074Z,35.65
2023-05-22T10:09:42.957Z,33.90
2023-05-22T10:12:16.246Z,31.55
2023-05-22T10:14:44.120Z,30.98
2023-05-22T10:17:12.421Z,32.95
2023-05-22T10:19:42.831Z,28.23
2023-05-22T10:22:20.874Z,28.77
2023-05-22T10:24:48.861Z,27.95
2023-05-22T10:27:20.535Z,31.08
2023-05-22T10:29:53.127Z,33.95
2023-05-22T10:32:49.089Z,30.35
2023-05-22T10:35:21.094Z,30.35
2023-05-22T10:37:55.037Z,33.72
2023-05-22T10:40:29.034Z,32.97
2023-05-22T10:43:01.256Z,33.85
2023-05-22T10:45:31.890Z,31.25
2023-05-22T10:48:14.800Z,31.38
2023-05-22T10:50:54.385Z,31.70
2023-05-22T10:53:28.108Z,32.85
2023-05-22T10:56:05.654Z,33.30
2023-05-22T10:58:37.445Z,37.95
2023-05-22T11:01:20.350Z,37.45
2023-05-22T11:04:02.504Z,39.10
2023-05-22T11:06:45.802Z,40.25
2023-05-22T11:09:31.285Z,40.17
2023-05-22T11:12:26.499Z,38.63
2023-05-22T11:15:00.342Z,42.10
2023-05-22T11:17:40.336Z,51.60
2023-05-22T11:20:24.366Z,50.75
2023-05-22T11:22:56.969Z,49.30
2023-05-22T11:25:27.862Z,46.67
2023-05-22T11:27:56.167Z,45.85
2023-05-22T11:30:30.748Z,41.10
2023-05-22T11:32:59.339Z,47.60
2023-05-22T11:35:27.237Z,42.35
2023-05-22T11:37:58.858Z,39.88
2023-05-22T11:40:29.575Z,38.10
2023-05-22T11:42:57.273Z,35.05
2023-05-22T11:45:27.510Z,33.60
2023-05-22T11:47:57.475Z,30.75
2023-05-22T11:50:41.798Z,34.10
2023-05-22T11:53:15.881Z,36.17
2023-05-22T11:55:48.073Z,32.60
2023-05-22T11:58:18.632Z,36.03
2023-05-22T12:00:48.139Z,36.33
2023-05-22T12:03:15.439Z,35.08
2023-05-22T12:05:47.537Z,36.42
2023-05-22T12:08:19.879Z,35.28
2023-05-22T12:10:51.082Z,41.13
2023-05-22T12:13:30.805Z,42.25
2023-05-22T12:16:02.974Z,46.17
2023-05-22T12:18:37.517Z,47.40
2023-05-22T12:21:08.168Z,48.13
2023-05-22T12:23:49.396Z,46.45
2023-05-22T12:26:21.932Z,48.63
2023-05-22T12:28:56.010Z,48.53
2023-05-22T12:31:23.654Z,45.20
2023-05-22T12:33:55.203Z,46.13
2023-05-22T12:36:38.651Z,44.20
2023-05-22T12:39:17.764Z,43.17
2023-05-22T12:41:50.767Z,41.75
2023-05-22T12:44:20.522Z,42.92
2023-05-22T12:46:48.054Z,40.97
2023-05-22T12:49:15.337Z,40.92
2023-05-22T12:51:42.623Z,39.22
2023-05-22T12:54:10.184Z,41.38
2023-05-22T12:56:37.473Z,42.35
2023-05-22T12:59:09.301Z,42.75
2023-05-22T13:01:39.537Z,44.78
2023-05-22T13:04:09.313Z,41.17
2023-05-22T13:06:39.172Z,43.78
2023-05-22T13:09:06.624Z,43.65
2023-05-22T13:11:36.239Z,45.05
2023-05-22T13:14:03.490Z,43.28
2023-05-22T13:16:31.464Z,42.38
2023-05-22T13:18:58.682Z,39.38
2023-05-22T13:21:28.164Z,35.97
2023-05-22T13:23:57.964Z,37.75
2023-05-22T13:26:26.200Z,34.97
2023-05-22T13:28:53.391Z,34.10
2023-05-22T13:31:27.346Z,32.00
2023-05-22T13:33:57.188Z,30.80
2023-05-22T13:36:26.990Z,30.95
2023-05-22T13:38:54.228Z,32.28
2023-05-22T13:41:24.114Z,32.58
2023-05-22T13:43:53.672Z,31.55
2023-05-22T13:46:24.127Z,33.80
2023-05-22T13:48:51.354Z,33.17
2023-05-22T13:51:18.614Z,33.15
2023-05-22T13:53:47.912Z,32.10
2023-05-22T13:56:20.190Z,32.40
2023-05-22T13:58:47.385Z,28.75
2023-05-22T14:01:14.660Z,29.65
2023-05-22T14:03:41.926Z,28.95
2023-05-22T14:06:11.591Z,30.48
2023-05-22T14:08:38.848Z,28.55
2023-05-22T14:11:08.298Z,30.25
2023-05-22T14:13:35.906Z,29.05
2023-05-22T14:16:10.855Z,30.55
2023-05-22T14:18:38.249Z,28.40
2023-05-22T14:21:05.602Z,28.52
2023-05-22T14:23:37.582Z,29.08
2023-05-22T14:26:09.700Z,29.08
2023-05-22T14:28:41.817Z,28.08
2023-05-22T14:31:11.791Z,26.48
2023-05-22T14:33:41.085Z,25.23
2023-05-22T14:36:08.583Z,27.77
2023-05-22T14:38:38.357Z,29.23
2023-05-22T14:41:07.806Z,28.95
2023-05-22T14:43:37.262Z,29.02
2023-05-22T14:46:04.620Z,27.42
2023-05-22T14:48:34.242Z,29.45
2023-05-22T14:51:05.924Z,31.17
2023-05-22T14:53:35.654Z,35.25
2023-05-22T14:56:08.062Z,36.55
2023-05-22T14:58:39.835Z,38.63
2023-05-22T15:01:07.073Z,38.10
2023-05-22T15:03:36.472Z,41.25
2023-05-22T15:06:06.352Z,38.65
2023-05-22T15:08:36.908Z,38.58
2023-05-22T15:11:04.180Z,37.70
2023-05-22T15:13:31.347Z,41.47
2023-05-22T15:15:58.594Z,40.60
2023-05-22T15:18:28.008Z,37.58
2023-05-22T15:20:57.664Z,37.67
2023-05-22T15:23:29.953Z,37.17
2023-05-22T15:25:57.318Z,37.55
2023-05-22T15:28:26.936Z,36.10
2023-05-22T15:30:59.582Z,38.30
2023-05-22T15:33:26.743Z,36.80
2023-05-22T15:35:54.016Z,39.75
2023-05-22T15:38:25.891Z,39.20
2023-05-22T15:40:55.377Z,40.30
2023-05-22T15:43:29.442Z,38.03
2023-05-22T15:45:56.719Z,37.88
2023-05-22T15:48:23.960Z,34.20
2023-05-22T15:50:55.912Z,31.30
2023-05-22T15:53:25.144Z,29.67
2023-05-22T15:55:54.657Z,29.08
2023-05-22T15:58:21.840Z,28.35
2023-05-22T16:00:49.195Z,27.77
2023-05-22T16:03:17.013Z,27.00
2023-05-22T16:05:46.939Z,25.67
2023-05-22T16:08:15.916Z,27.15
2023-05-22T16:10:48.072Z,26.52
2023-05-22T16:13:15.434Z,27.48
2023-05-22T16:15:44.059Z,26.25
2023-05-22T16:18:16.089Z,23.67
2023-05-22T16:20:43.295Z,24.98
2023-05-22T16:23:12.630Z,23.27
2023-05-22T16:25:40.101Z,23.55
2023-05-22T16:28:11.025Z,20.92
2023-05-22T16:30:40.005Z,22.30
2023-05-22T16:33:12.384Z,21.08
2023-05-22T16:35:47.276Z,22.92
2023-05-22T16:38:14.919Z,21.27
2023-05-22T16:40:44.216Z,22.00
2023-05-22T16:43:16.771Z,24.00
2023-05-22T16:45:47.534Z,23.35
2023-05-22T16:48:17.885Z,21.98
2023-05-22T16:50:47.571Z,21.40
2023-05-22T16:53:17.339Z,21.35
2023-05-22T16:55:46.948Z,19.30
2023-05-22T16:58:16.535Z,21.48
2023-05-22T17:00:46.399Z,19.65
2023-05-22T17:03:16.461Z,20.35
2023-05-22T17:05:45.374Z,18.42
2023-05-22T17:08:12.561Z,21.48
2023-05-22T17:10:44.108Z,21.60
2023-05-22T17:13:20.703Z,21.67
2023-05-22T17:15:51.461Z,21.35
2023-05-22T17:18:22.560Z,21.55
2023-05-22T17:20:54.031Z,20.20
2023-05-22T17:23:21.403Z,20.38
2023-05-22T17:25:55.175Z,20.63
2023-05-22T17:28:24.551Z,20.17
2023-05-22T17:30:54.224Z,20.63
2023-05-22T17:33:29.310Z,19.33
2023-05-22T17:36:00.149Z,20.63
2023-05-22T17:38:27.368Z,21.42
2023-05-22T17:41:00.732Z,21.63
2023-05-22T17:43:30.556Z,20.63
2023-05-22T17:45:59.941Z,22.67
2023-05-22T17:48:29.544Z,20.70
2023-05-22T17:51:01.569Z,22.13
2023-05-22T17:53:34.790Z,23.35
2023-05-22T17:56:03.535Z,21.92
2023-05-22T17:58:30.766Z,22.13
2023-05-22T18:01:00.199Z,21.98
2023-05-22T18:03:27.439Z,21.92
2023-05-22T18:05:57.014Z,20.17
2023-05-22T18:08:26.844Z,24.08
2023-05-22T18:10:55.787Z,21.35
2023-05-22T18:13:25.225Z,20.15
2023-05-22T18:15:53.146Z,19.95
2023-05-22T18:18:22.739Z,20.73
2023-05-22T18:20:50.373Z,21.85
2023-05-22T18:23:22.319Z,20.33
2023-05-22T18:25:49.628Z,18.73
2023-05-22T18:28:26.669Z,19.70
2023-05-22T18:30:58.901Z,19.02
2023-05-22T18:33:31.049Z,21.23
2023-05-22T18:36:00.814Z,19.48
2023-05-22T18:38:29.738Z,20.25
2023-05-22T18:41:01.662Z,18.73
2023-05-22T18:43:29.283Z,19.73
2023-05-22T18:45:57.886Z,20.58
2023-05-22T18:48:25.469Z,20.88
2023-05-22T18:50:57.914Z,19.33
2023-05-22T18:53:26.025Z,19.70
2023-05-22T18:55:54.112Z,19.40
2023-05-22T18:58:21.682Z,18.85
2023-05-22T19:00:49.211Z,20.17
2023-05-22T19:03:19.574Z,20.30
2023-05-22T19:05:51.399Z,20.60
2023-05-22T19:08:21.755Z,19.35
2023-05-22T19:10:48.962Z,20.10
2023-05-22T19:13:21.147Z,21.40
2023-05-22T19:15:48.373Z,19.63
2023-05-22T19:18:19.193Z,20.45
2023-05-22T19:20:46.737Z,19.30
2023-05-22T19:23:16.432Z,19.08
2023-05-22T19:25:45.827Z,20.33
2023-05-22T19:28:13.033Z,20.52
2023-05-22T19:30:42.822Z,20.73
2023-05-22T19:33:11.245Z,19.25
2023-05-22T19:35:38.707Z,20.77
2023-05-22T19:38:06.036Z,19.20
2023-05-22T19:40:39.590Z,19.40
2023-05-22T19:43:06.989Z,19.98
2023-05-22T19:45:36.706Z,19.92
2023-05-22T19:48:06.573Z,19.88
2023-05-22T19:50:38.710Z,19.92
2023-05-22T19:53:06.150Z,20.17
2023-05-22T19:55:37.991Z,20.50
2023-05-22T19:58:07.559Z,20.42
2023-05-22T20:00:35.775Z,21.67
2023-05-22T20:03:03.237Z,20.48
2023-05-22T20:05:30.547Z,20.90
2023-05-22T20:08:00.355Z,21.08
2023-05-22T20:10:27.822Z,20.23
2023-05-22T20:12:58.069Z,20.70
2023-05-22T20:15:25.447Z,21.08
2023-05-22T20:17:53.662Z,19.02
2023-05-22T20:20:25.477Z,19.73
2023-05-22T20:22:53.770Z,19.25
2023-05-22T20:25:25.520Z,19.38
2023-05-22T20:27:55.234Z,16.63
2023-05-22T20:30:24.634Z,16.63
2023-05-22T20:32:54.407Z,18.45
2023-05-22T20:35:30.623Z,15.85
2023-05-22T20:38:03.017Z,16.00
2023-05-22T20:40:34.060Z,15.63
2023-05-22T20:43:03.930Z,14.80
2023-05-22T20:45:37.511Z,15.10
2023-05-22T20:48:04.771Z,15.57
2023-05-22T20:50:36.970Z,15.15
2023-05-22T20:53:08.519Z,14.70
2023-05-22T20:55:35.792Z,13.57
2023-05-22T20:58:03.030Z,12.48
2023-05-22T21:00:30.298Z,12.93
2023-05-22T21:03:01.159Z,13.10
2023-05-22T21:05:30.873Z,12.52
2023-05-22T21:08:00.434Z,12.65
2023-05-22T21:10:27.776Z,12.10
2023-05-22T21:12:54.961Z,12.70
2023-05-22T21:15:24.789Z,13.10
2023-05-22T21:17:51.994Z,12.23
2023-05-22T21:20:23.925Z,13.38
2023-05-22T21:22:56.305Z,12.80
2023-05-22T21:25:25.778Z,12.75
2023-05-22T21:27:54.483Z,13.93
2023-05-22T21:30:23.890Z,13.77
2023-05-22T21:32:53.375Z,13.50
2023-05-22T21:35:22.776Z,13.38
2023-05-22T21:37:49.957Z,15.38
2023-05-22T21:40:21.855Z,15.45
2023-05-22T21:42:52.007Z,16.20
2023-05-22T21:45:19.201Z,16.38
2023-05-22T21:47:46.376Z,16.17
2023-05-22T21:50:17.082Z,17.73
2023-05-22T21:52:45.237Z,18.33
2023-05-22T21:55:12.445Z,17.67
2023-05-22T21:57:45.865Z,19.95
2023-05-22T22:00:14.009Z,21.13
2023-05-22T22:02:41.753Z,19.83
2023-05-22T22:05:11.631Z,21.83
2023-05-22T22:07:38.862Z,20.55
2023-05-22T22:10:11.331Z,22.40
2023-05-22T22:12:38.471Z,25.75
2023-05-22T22:15:09.269Z,25.10
2023-05-22T22:17:42.601Z,24.55
2023-05-22T22:20:12.780Z,28.55
2023-05-22T22:22:43.238Z,24.63
2023-05-22T22:25:11.102Z,26.17
2023-05-22T22:27:38.611Z,28.65
2023-05-22T22:30:09.950Z,29.10
2023-05-22T22:32:37.441Z,27.38
2023-05-22T22:35:05.281Z,28.10
2023-05-22T22:37:37.667Z,29.25
2023-05-22T22:40:05.875Z,31.38
2023-05-22T22:42:34.079Z,27.88
2023-05-22T22:45:03.880Z,29.67
2023-05-22T22:47:31.151Z,29.23
2023-05-22T22:50:00.941Z,26.05
2023-05-22T22:52:28.145Z,25.80
2023-05-22T22:54:55.478Z,29.42
2023-05-22T22:57:25.082Z,28.00
2023-05-22T22:59:52.224Z,29.67
2023-05-22T23:02:24.979Z,27.00
2023-05-22T23:04:54.303Z,26.40
2023-05-22T23:07:24.164Z,27.67
2023-05-22T23:09:56.161Z,29.52
2023-05-22T23:12:23.312Z,25.90
2023-05-22T23:15:02.901Z,30.08
2023-05-22T23:17:32.657Z,27.77
2023-05-22T23:20:02.305Z,26.85
2023-05-22T23:22:30.783Z,28.00
2023-05-22T23:24:57.918Z,25.88
2023-05-22T23:27:27.644Z,25.83
2023-05-22T23:29:54.938Z,22.63
2023-05-22T23:32:24.318Z,22.85
2023-05-22T23:34:56.501Z,23.40
2023-05-22T23:37:23.730Z,24.52
2023-05-22T23:39:53.146Z,24.08
2023-05-22T23:42:22.788Z,24.63
2023-05-22T23:44:52.463Z,22.30
2023-05-22T23:47:20.020Z,26.48
2023-05-22T23:49:51.780Z,23.90
2023-05-22T23:52:18.930Z,24.58
2023-05-22T23:54:46.174Z,24.10
2023-05-22T23:57:15.684Z,23.40
2023-05-22T23:59:43.728Z,24.55
